FQMA

Maputo Airport

Maputo, Mozambique
TAF FQMA 251000Z 2512/2618 33010KT 9999 FEW020 BECMG 2512/2514 03015KT BKN025 BECMG 2518/2520 33008KT BECMG 2606/2608 06010G20KT BECMG 2612/2614 30008KT TN21/2603Z TX35/2513Z
Issued Valid From Valid To
Sep-25 @ 10:00 UTC
(5 hours ago)
Sep-25 @ 12:00 UTC
(3 hours ago)
Sep-26 @ 18:00 UTC
(-1 days ago)
Sep-25 @ 12:00 to Sep-26 @ 18:00
TAF FQMA 251000Z 2512/2618 33010KT 9999 FEW020
Wind Visibility Clouds
330° at 10 knots 10,000+ meters
  • Few at 2,000' AGL
Becoming Sep-25 @ 12:00 to Sep-25 @ 18:00
BECMG 2512/2514 03015KT BKN025
Wind Visibility Clouds
30° at 15 knots 10,000+ meters
  • Broken at 2,500' AGL
Becoming Sep-25 @ 18:00 to Sep-26 @ 06:00
BECMG 2518/2520 33008KT
Wind Visibility Clouds
330° at 8 knots 10,000+ meters
  • Broken at 2,500' AGL
Becoming Sep-26 @ 06:00 to Sep-26 @ 12:00
BECMG 2606/2608 06010G20KT
Wind Visibility Clouds
60° at 10 knots
 Gusting to 20 knots
10,000+ meters
  • Broken at 2,500' AGL
Becoming Sep-26 @ 12:00 to Sep-26 @ 18:00
BECMG 2612/2614 30008KT TN21/2603Z TX35/2513Z
Wind Visibility Clouds
300° at 8 knots 10,000+ meters
  • Broken at 2,500' AGL
TAF FQMA 251000Z 2512/2618 33010KT 9999 FEW020 BECMG 2512/2514 03015KT BKN025 BECMG 2518/2520 33008KT BECMG 2606/2608 06010G20KT BECMG 2612/2614 30008KT TN21/2603Z TX35/2513Z
Issued Sep-25 @ 10:00 UTC
(5 hours ago)
Valid From Sep-25 @ 12:00 UTC
(3 hours ago)
Valid To Sep-26 @ 18:00 UTC
(-1 days ago)
Sep-25 @ 12:00 - Sep-26 @ 18:00
Wind Visibility
330° at 10 knots 10,000+ meters
Clouds
  • Few at 2,000' AGL
Becoming Sep-25 @ 12:00 - Sep-25 @ 18:00
Wind Visibility
30° at 15 knots 10,000+ meters
Clouds
  • Broken at 2,500' AGL
Becoming Sep-25 @ 18:00 - Sep-26 @ 06:00
Wind Visibility
330° at 8 knots 10,000+ meters
Clouds
  • Broken at 2,500' AGL
Becoming Sep-26 @ 06:00 - Sep-26 @ 12:00
Wind Visibility
60° at 10 knots
 Gusting to 20 knots
10,000+ meters
Clouds
  • Broken at 2,500' AGL
Becoming Sep-26 @ 12:00 - Sep-26 @ 18:00
Wind Visibility
300° at 8 knots 10,000+ meters
Clouds
  • Broken at 2,500' AGL